createdAt,value
2022-08-31T00:00:12.324Z,17.30
2022-08-31T00:02:58.438Z,17.20
2022-08-31T00:05:26.031Z,17.10
2022-08-31T00:07:53.231Z,17.10
2022-08-31T00:10:32.262Z,17.10
2022-08-31T00:13:00.916Z,17.10
2022-08-31T00:15:30.015Z,17.10
2022-08-31T00:17:57.252Z,17.10
2022-08-31T00:20:33.682Z,17.10
2022-08-31T00:23:07.674Z,17.10
2022-08-31T00:25:35.756Z,17.10
2022-08-31T00:28:04.192Z,17.10
2022-08-31T00:30:32.606Z,17.10
2022-08-31T00:33:00.113Z,17.10
2022-08-31T00:35:29.505Z,17.10
2022-08-31T00:37:56.852Z,17.20
2022-08-31T00:40:25.222Z,17.20
2022-08-31T00:42:52.690Z,17.10
2022-08-31T00:45:19.865Z,17.10
2022-08-31T00:47:46.933Z,17.20
2022-08-31T00:50:17.753Z,17.10
2022-08-31T00:52:54.381Z,17.10
2022-08-31T00:55:32.342Z,17.10
2022-08-31T00:58:04.661Z,17.00
2022-08-31T01:00:32.420Z,17.00
2022-08-31T01:03:02.693Z,16.90
2022-08-31T01:05:31.504Z,16.90
2022-08-31T01:08:00.432Z,16.90
2022-08-31T01:10:32.751Z,16.90
2022-08-31T01:13:00.391Z,16.90
2022-08-31T01:15:30.393Z,16.80
2022-08-31T01:18:06.482Z,16.80
2022-08-31T01:21:28.811Z,16.80
2022-08-31T01:23:59.939Z,16.70
2022-08-31T01:26:30.219Z,16.70
2022-08-31T01:29:04.398Z,16.70
2022-08-31T01:31:43.929Z,16.70
2022-08-31T01:34:11.971Z,16.60
2022-08-31T01:36:42.222Z,16.60
2022-08-31T01:39:10.756Z,16.60
2022-08-31T01:41:43.652Z,16.60
2022-08-31T01:44:17.895Z,16.60
2022-08-31T01:46:46.364Z,16.60
2022-08-31T01:49:15.700Z,16.50
2022-08-31T01:51:43.224Z,16.50
2022-08-31T01:54:11.001Z,16.50
2022-08-31T01:56:43.391Z,16.50
2022-08-31T01:59:17.454Z,16.50
2022-08-31T02:02:03.229Z,16.40
2022-08-31T02:04:30.380Z,16.30
2022-08-31T02:07:00.350Z,16.30
2022-08-31T02:09:29.192Z,16.30
2022-08-31T02:11:56.334Z,16.30
2022-08-31T02:14:23.814Z,16.20
2022-08-31T02:16:50.903Z,16.20
2022-08-31T02:19:18.574Z,16.10
2022-08-31T02:21:45.577Z,16.10
2022-08-31T02:24:12.734Z,16.00
2022-08-31T02:26:40.502Z,16.00
2022-08-31T02:29:07.939Z,16.00
2022-08-31T02:31:35.576Z,15.90
2022-08-31T02:34:03.151Z,16.00
2022-08-31T02:36:32.256Z,16.00
2022-08-31T02:39:03.109Z,15.90
2022-08-31T02:41:31.386Z,15.90
2022-08-31T02:43:58.400Z,15.90
2022-08-31T02:46:25.358Z,15.80
2022-08-31T02:49:11.069Z,15.80
2022-08-31T02:51:42.888Z,15.70
2022-08-31T02:54:11.161Z,15.70
2022-08-31T02:56:38.482Z,15.60
2022-08-31T02:59:06.795Z,15.60
2022-08-31T03:01:35.838Z,15.60
2022-08-31T03:04:04.818Z,15.60
2022-08-31T03:06:32.609Z,15.60
2022-08-31T03:09:01.167Z,15.50
2022-08-31T03:11:28.740Z,15.50
2022-08-31T03:13:58.646Z,15.40
2022-08-31T03:16:26.599Z,15.40
2022-08-31T03:18:54.021Z,15.30
2022-08-31T03:21:21.008Z,15.20
2022-08-31T03:23:48.164Z,15.10
2022-08-31T03:26:15.263Z,15.10
2022-08-31T03:28:42.384Z,15.10
2022-08-31T03:31:28.011Z,15.10
2022-08-31T03:33:57.394Z,15.00
2022-08-31T03:36:24.524Z,15.00
2022-08-31T03:38:52.239Z,15.10
2022-08-31T03:41:23.916Z,15.10
2022-08-31T03:43:51.895Z,15.00
2022-08-31T03:46:19.659Z,15.00
2022-08-31T03:48:49.951Z,15.00
2022-08-31T03:51:20.127Z,14.90
2022-08-31T03:53:47.280Z,14.90
2022-08-31T03:56:18.532Z,14.80
2022-08-31T03:58:46.493Z,14.80
2022-08-31T04:01:29.702Z,14.80
2022-08-31T04:04:16.136Z,14.80
2022-08-31T04:07:03.556Z,14.70
2022-08-31T04:10:00.270Z,14.70
2022-08-31T04:12:52.802Z,14.60
2022-08-31T04:15:48.449Z,14.50
2022-08-31T04:18:40.457Z,14.50
2022-08-31T04:21:20.303Z,14.50
2022-08-31T04:23:48.890Z,14.40
2022-08-31T04:26:23.031Z,14.40
2022-08-31T04:28:51.167Z,14.30
2022-08-31T04:31:20.525Z,14.30
2022-08-31T04:33:48.210Z,14.20
2022-08-31T04:36:18.920Z,14.30
2022-08-31T04:38:50.478Z,14.20
2022-08-31T04:41:20.725Z,14.10
2022-08-31T04:43:54.986Z,14.10
2022-08-31T04:46:23.313Z,14.10
2022-08-31T04:48:51.122Z,14.10
2022-08-31T04:51:24.944Z,14.00
2022-08-31T04:53:53.296Z,14.00
2022-08-31T04:56:25.355Z,13.90
2022-08-31T04:58:57.367Z,14.00
2022-08-31T05:01:35.884Z,14.00
2022-08-31T05:04:42.395Z,14.00
2022-08-31T05:07:09.454Z,13.90
2022-08-31T05:09:36.703Z,13.90
2022-08-31T05:12:04.054Z,13.90
2022-08-31T05:14:31.155Z,13.90
2022-08-31T05:17:02.039Z,13.90
2022-08-31T05:19:32.021Z,13.90
2022-08-31T05:21:59.986Z,13.90
2022-08-31T05:24:27.732Z,13.90
2022-08-31T05:26:56.424Z,13.80
2022-08-31T05:29:26.119Z,13.80
2022-08-31T05:32:08.891Z,13.90
2022-08-31T05:34:36.250Z,14.00
2022-08-31T05:37:03.437Z,14.00
2022-08-31T05:39:33.360Z,14.10
2022-08-31T05:42:00.490Z,14.20
2022-08-31T05:44:28.676Z,14.30
2022-08-31T05:47:01.069Z,14.40
2022-08-31T05:49:32.931Z,14.60
2022-08-31T05:52:01.343Z,14.60
2022-08-31T05:54:29.884Z,14.70
2022-08-31T05:57:00.967Z,14.70
2022-08-31T05:59:31.160Z,14.70
2022-08-31T06:01:59.837Z,14.70
2022-08-31T06:04:29.037Z,14.80
2022-08-31T06:06:56.106Z,14.80
2022-08-31T06:09:27.099Z,14.80
2022-08-31T06:11:54.274Z,14.80
2022-08-31T06:14:23.710Z,14.80
2022-08-31T06:16:51.450Z,14.80
2022-08-31T06:19:20.113Z,14.80
2022-08-31T06:21:51.398Z,14.80
2022-08-31T06:24:24.631Z,14.90
2022-08-31T06:26:58.770Z,14.90
2022-08-31T06:29:32.506Z,14.90
2022-08-31T06:32:06.080Z,14.90
2022-08-31T06:34:34.086Z,15.00
2022-08-31T06:37:10.951Z,15.00
2022-08-31T06:40:15.312Z,15.00
2022-08-31T06:43:08.026Z,15.20
2022-08-31T06:45:58.656Z,15.40
2022-08-31T06:48:31.401Z,15.40
2022-08-31T06:50:59.447Z,15.50
2022-08-31T06:53:26.928Z,15.60
2022-08-31T06:56:25.663Z,15.70
2022-08-31T06:59:25.283Z,15.60
2022-08-31T07:02:12.987Z,15.80
2022-08-31T07:04:40.521Z,16.00
2022-08-31T07:07:11.376Z,16.20
2022-08-31T07:09:41.118Z,16.40
2022-08-31T07:12:09.469Z,16.20
2022-08-31T07:14:37.490Z,16.20
2022-08-31T07:17:05.650Z,16.10
2022-08-31T07:19:33.516Z,16.20
2022-08-31T07:22:07.202Z,16.20
2022-08-31T07:24:35.646Z,16.30
2022-08-31T07:27:10.151Z,16.50
2022-08-31T07:29:45.065Z,16.50
2022-08-31T07:32:15.703Z,16.50
2022-08-31T07:34:44.266Z,16.60
2022-08-31T07:37:40.930Z,16.60
2022-08-31T07:40:28.052Z,16.50
2022-08-31T07:42:55.711Z,16.50
2022-08-31T07:45:24.895Z,16.40
2022-08-31T07:47:57.792Z,16.30
2022-08-31T07:50:28.003Z,16.40
2022-08-31T07:53:19.190Z,16.50
2022-08-31T07:55:56.715Z,16.50
2022-08-31T07:58:37.380Z,16.50
2022-08-31T08:01:04.382Z,16.60
2022-08-31T08:03:31.382Z,16.60
2022-08-31T08:06:17.915Z,16.70
2022-08-31T08:09:22.202Z,16.80
2022-08-31T08:12:08.285Z,16.90
2022-08-31T08:14:44.010Z,17.00
2022-08-31T08:17:34.016Z,17.00
2022-08-31T08:20:11.664Z,17.10
2022-08-31T08:22:53.977Z,17.20
2022-08-31T08:25:35.081Z,17.30
2022-08-31T08:28:22.904Z,17.40
2022-08-31T08:30:55.072Z,17.50
2022-08-31T08:33:25.266Z,17.70
2022-08-31T08:36:04.675Z,17.90
2022-08-31T08:38:32.195Z,18.00
2022-08-31T08:41:06.725Z,18.20
2022-08-31T08:43:39.279Z,18.30
2022-08-31T08:46:31.154Z,18.40
2022-08-31T08:49:00.616Z,18.50
2022-08-31T08:51:38.413Z,18.60
2022-08-31T08:54:15.855Z,18.70
2022-08-31T08:56:52.553Z,19.00
2022-08-31T08:59:27.748Z,19.20
2022-08-31T09:02:02.008Z,19.00
2022-08-31T09:05:12.697Z,19.10
2022-08-31T09:08:44.007Z,19.00
2022-08-31T09:11:46.802Z,19.10
2022-08-31T09:14:48.183Z,19.40
2022-08-31T09:17:32.914Z,19.50
2022-08-31T09:20:05.578Z,19.70
2022-08-31T09:22:51.850Z,19.80
2022-08-31T09:25:33.357Z,19.70
2022-08-31T09:28:34.130Z,19.40
2022-08-31T09:31:01.435Z,19.60
2022-08-31T09:33:32.900Z,19.90
2022-08-31T09:36:19.489Z,20.30
2022-08-31T09:38:47.877Z,20.70
2022-08-31T09:41:31.229Z,20.80
2022-08-31T09:44:23.200Z,20.70
2022-08-31T09:46:54.060Z,21.00
2022-08-31T09:49:26.391Z,21.30
2022-08-31T09:52:16.127Z,21.70
2022-08-31T09:55:14.235Z,21.90
2022-08-31T09:58:03.069Z,22.00
2022-08-31T10:00:42.624Z,21.80
2022-08-31T10:03:25.999Z,21.60
2022-08-31T10:05:54.565Z,21.70
2022-08-31T10:08:41.074Z,21.50
2022-08-31T10:11:14.961Z,21.30
2022-08-31T10:14:03.532Z,21.10
2022-08-31T10:16:47.512Z,21.40
2022-08-31T10:19:22.331Z,21.60
2022-08-31T10:22:05.599Z,22.10
2022-08-31T10:24:46.284Z,22.50
2022-08-31T10:27:22.404Z,22.90
2022-08-31T10:30:09.552Z,23.30
2022-08-31T10:32:40.715Z,23.00
2022-08-31T10:35:20.489Z,23.10
2022-08-31T10:38:26.176Z,23.40
2022-08-31T10:41:17.628Z,23.00
2022-08-31T10:44:04.441Z,23.00
2022-08-31T10:46:35.652Z,22.90
2022-08-31T10:49:05.108Z,23.10
2022-08-31T10:52:10.433Z,22.90
2022-08-31T10:55:06.587Z,22.70
2022-08-31T10:57:51.441Z,23.00
2022-08-31T11:00:41.688Z,23.30
2022-08-31T11:03:33.775Z,23.00
2022-08-31T11:06:15.928Z,22.80
2022-08-31T11:09:10.171Z,23.10
2022-08-31T11:12:06.831Z,23.40
2022-08-31T11:15:24.021Z,23.60
2022-08-31T11:18:12.599Z,23.60
2022-08-31T11:20:49.172Z,23.60
2022-08-31T11:23:54.589Z,23.30
2022-08-31T11:26:47.888Z,23.00
2022-08-31T11:30:00.714Z,22.90
2022-08-31T11:32:47.779Z,23.10
2022-08-31T11:35:15.552Z,23.40
2022-08-31T11:37:52.243Z,23.40
2022-08-31T11:40:43.761Z,23.70
2022-08-31T11:43:32.591Z,23.80
2022-08-31T11:46:26.681Z,24.10
2022-08-31T11:48:54.913Z,24.30
2022-08-31T11:51:41.649Z,24.60
2022-08-31T11:54:26.873Z,24.90
2022-08-31T11:56:57.245Z,25.20
2022-08-31T11:59:35.483Z,25.00
2022-08-31T12:02:21.135Z,24.80
2022-08-31T12:04:53.384Z,24.60
2022-08-31T12:07:30.645Z,24.40
2022-08-31T12:10:28.017Z,24.30
2022-08-31T12:13:09.594Z,24.20
2022-08-31T12:15:43.733Z,24.10
2022-08-31T12:18:43.840Z,24.00
2022-08-31T12:21:56.992Z,24.30
2022-08-31T12:24:51.110Z,24.80
2022-08-31T12:27:40.858Z,25.20
2022-08-31T12:30:27.254Z,25.30
2022-08-31T12:33:18.524Z,25.40
2022-08-31T12:35:49.532Z,25.50
2022-08-31T12:38:23.142Z,25.50
2022-08-31T12:40:54.800Z,25.60
2022-08-31T12:43:30.578Z,25.70
2022-08-31T12:46:49.277Z,25.90
2022-08-31T12:49:30.335Z,26.10
2022-08-31T12:52:52.862Z,26.10
2022-08-31T12:55:42.598Z,26.20
2022-08-31T12:58:38.462Z,26.20
2022-08-31T13:01:11.595Z,26.30
2022-08-31T13:03:46.699Z,26.50
2022-08-31T13:06:32.918Z,26.60
2022-08-31T13:09:01.740Z,26.60
2022-08-31T13:11:42.674Z,26.70
2022-08-31T13:14:15.615Z,27.00
2022-08-31T13:16:47.970Z,27.10
2022-08-31T13:19:31.462Z,27.10
2022-08-31T13:22:01.348Z,27.00
2022-08-31T13:24:32.968Z,26.80
2022-08-31T13:27:25.650Z,26.60
2022-08-31T13:29:56.419Z,26.50
2022-08-31T13:32:33.715Z,25.80
2022-08-31T13:35:07.124Z,25.40
2022-08-31T13:37:41.888Z,25.50
2022-08-31T13:40:13.707Z,25.40
2022-08-31T13:42:50.809Z,25.60
2022-08-31T13:45:31.303Z,25.90
2022-08-31T13:48:19.028Z,26.40
2022-08-31T13:50:53.443Z,26.70
2022-08-31T13:53:45.891Z,26.40
2022-08-31T13:56:46.366Z,26.40
2022-08-31T13:59:29.437Z,26.60
2022-08-31T14:02:19.467Z,26.60
2022-08-31T14:05:00.661Z,26.10
2022-08-31T14:07:40.867Z,26.00
2022-08-31T14:10:19.773Z,25.90
2022-08-31T14:12:59.326Z,26.10
2022-08-31T14:15:37.190Z,25.60
2022-08-31T14:18:26.147Z,25.40
2022-08-31T14:21:23.200Z,25.30
2022-08-31T14:23:52.962Z,25.50
2022-08-31T14:26:26.645Z,25.90
2022-08-31T14:29:00.883Z,26.00
2022-08-31T14:31:37.374Z,25.90
2022-08-31T14:34:26.474Z,26.10
2022-08-31T14:37:02.188Z,26.00
2022-08-31T14:39:45.984Z,26.00
2022-08-31T14:42:20.849Z,26.00
2022-08-31T14:44:56.496Z,26.20
2022-08-31T14:47:27.743Z,25.90
2022-08-31T14:49:58.054Z,25.80
2022-08-31T14:52:27.990Z,26.20
2022-08-31T14:54:55.952Z,26.60
2022-08-31T14:57:25.855Z,26.60
2022-08-31T14:59:59.754Z,26.70
2022-08-31T15:02:34.082Z,27.10
2022-08-31T15:05:04.858Z,27.50
2022-08-31T15:07:35.198Z,27.50
2022-08-31T15:10:06.694Z,27.40
2022-08-31T15:12:34.785Z,27.10
2022-08-31T15:15:01.825Z,26.70
2022-08-31T15:17:33.700Z,26.60
2022-08-31T15:20:03.231Z,26.60
2022-08-31T15:22:31.285Z,26.50
2022-08-31T15:24:58.251Z,26.50
2022-08-31T15:27:28.677Z,26.70
2022-08-31T15:30:02.560Z,27.00
2022-08-31T15:32:29.653Z,27.00
2022-08-31T15:34:59.139Z,27.00
2022-08-31T15:37:31.963Z,26.80
2022-08-31T15:40:02.069Z,26.70
2022-08-31T15:42:38.307Z,26.70
2022-08-31T15:45:07.030Z,26.10
2022-08-31T15:47:56.514Z,26.10
2022-08-31T15:50:31.673Z,26.40
2022-08-31T15:53:08.312Z,26.50
2022-08-31T15:55:40.438Z,26.50
2022-08-31T15:58:09.512Z,26.50
2022-08-31T16:00:38.187Z,26.30
2022-08-31T16:03:06.087Z,25.90
2022-08-31T16:05:35.838Z,25.70
2022-08-31T16:08:03.558Z,25.70
2022-08-31T16:10:31.166Z,25.70
2022-08-31T16:12:58.302Z,25.60
2022-08-31T16:15:26.208Z,25.70
2022-08-31T16:17:57.647Z,26.00
2022-08-31T16:20:27.573Z,26.20
2022-08-31T16:22:55.391Z,25.90
2022-08-31T16:25:25.282Z,26.00
2022-08-31T16:27:57.791Z,26.10
2022-08-31T16:30:24.802Z,25.90
2022-08-31T16:32:52.416Z,25.80
2022-08-31T16:35:19.715Z,25.70
2022-08-31T16:37:46.757Z,25.70
2022-08-31T16:40:13.986Z,25.60
2022-08-31T16:42:43.344Z,25.40
2022-08-31T16:45:11.067Z,25.40
2022-08-31T16:47:38.158Z,25.40
2022-08-31T16:50:12.104Z,25.10
2022-08-31T16:52:39.139Z,25.00
2022-08-31T16:55:06.885Z,25.00
2022-08-31T16:57:34.727Z,24.90
2022-08-31T17:00:04.098Z,24.70
2022-08-31T17:02:32.954Z,24.50
2022-08-31T17:05:04.523Z,24.40
2022-08-31T17:07:31.578Z,24.10
2022-08-31T17:10:04.078Z,24.00
2022-08-31T17:12:31.997Z,24.00
2022-08-31T17:15:00.385Z,23.90
2022-08-31T17:17:27.731Z,23.80
2022-08-31T17:19:56.192Z,23.80
2022-08-31T17:22:31.735Z,23.70
2022-08-31T17:25:04.832Z,23.70
2022-08-31T17:27:34.633Z,23.70
2022-08-31T17:30:05.821Z,23.60
2022-08-31T17:32:33.761Z,23.50
2022-08-31T17:35:02.580Z,23.50
2022-08-31T17:37:36.532Z,23.40
2022-08-31T17:40:08.187Z,23.30
2022-08-31T17:42:36.071Z,23.20
2022-08-31T17:45:05.024Z,23.10
2022-08-31T17:47:33.480Z,23.00
2022-08-31T17:50:00.584Z,23.00
2022-08-31T17:52:28.286Z,23.00
2022-08-31T17:54:55.391Z,22.80
2022-08-31T17:57:26.227Z,22.80
2022-08-31T17:59:55.444Z,22.80
2022-08-31T18:02:31.194Z,22.80
2022-08-31T18:04:58.858Z,22.80
2022-08-31T18:07:26.395Z,22.90
2022-08-31T18:09:53.833Z,22.90
2022-08-31T18:12:25.706Z,22.90
2022-08-31T18:14:54.317Z,22.90
2022-08-31T18:17:24.298Z,22.80
2022-08-31T18:19:51.573Z,22.80
2022-08-31T18:22:19.814Z,22.70
2022-08-31T18:24:46.951Z,22.60
2022-08-31T18:27:15.501Z,22.50
2022-08-31T18:29:44.396Z,22.50
2022-08-31T18:32:12.144Z,22.40
2022-08-31T18:34:47.312Z,22.30
2022-08-31T18:37:22.000Z,22.20
2022-08-31T18:40:18.947Z,22.20
2022-08-31T18:43:04.863Z,22.10
2022-08-31T18:45:32.259Z,22.00
2022-08-31T18:48:25.070Z,22.00
2022-08-31T18:50:49.849Z,21.90
2022-08-31T18:53:28.558Z,21.80
2022-08-31T18:56:11.513Z,21.80
2022-08-31T18:58:39.379Z,21.70
2022-08-31T19:01:10.303Z,21.60
2022-08-31T19:03:38.488Z,21.60
2022-08-31T19:06:07.858Z,21.50
2022-08-31T19:08:36.178Z,21.40
2022-08-31T19:11:07.413Z,21.40
2022-08-31T19:13:34.828Z,21.30
2022-08-31T19:16:10.706Z,21.20
2022-08-31T19:18:44.122Z,21.10
2022-08-31T19:21:20.709Z,21.10
2022-08-31T19:23:48.526Z,21.00
2022-08-31T19:26:36.489Z,21.00
2022-08-31T19:29:09.682Z,20.80
2022-08-31T19:31:40.967Z,20.80
2022-08-31T19:34:09.070Z,20.80
2022-08-31T19:36:40.623Z,20.70
2022-08-31T19:39:12.434Z,20.60
2022-08-31T19:41:49.396Z,20.60
2022-08-31T19:44:17.866Z,20.50
2022-08-31T19:46:52.566Z,20.40
2022-08-31T19:49:20.160Z,20.40
2022-08-31T19:51:51.792Z,20.30
2022-08-31T19:54:21.225Z,20.30
2022-08-31T19:56:48.425Z,20.20
2022-08-31T19:59:21.125Z,20.20
2022-08-31T20:01:54.487Z,20.10
2022-08-31T20:04:26.915Z,20.00
2022-08-31T20:06:55.867Z,19.90
2022-08-31T20:09:24.655Z,19.80
2022-08-31T20:11:54.836Z,19.70
2022-08-31T20:14:23.428Z,19.70
2022-08-31T20:16:52.415Z,19.70
2022-08-31T20:19:24.922Z,19.70
2022-08-31T20:22:03.528Z,19.70
2022-08-31T20:24:30.917Z,19.80
2022-08-31T20:27:08.979Z,19.80
2022-08-31T20:29:38.809Z,19.80
2022-08-31T20:32:07.933Z,19.70
2022-08-31T20:34:35.033Z,19.70
2022-08-31T20:37:02.610Z,19.60
2022-08-31T20:39:32.274Z,19.60
2022-08-31T20:42:00.424Z,19.60
2022-08-31T20:44:34.994Z,19.50
2022-08-31T20:47:27.415Z,19.40
2022-08-31T20:50:02.411Z,19.40
2022-08-31T20:52:34.947Z,19.40
2022-08-31T20:55:04.696Z,19.30
2022-08-31T20:57:33.498Z,19.30
2022-08-31T21:00:03.770Z,19.20
2022-08-31T21:02:31.800Z,19.20
2022-08-31T21:05:15.192Z,19.10
2022-08-31T21:07:47.328Z,19.10
2022-08-31T21:10:14.240Z,19.00
2022-08-31T21:12:41.325Z,19.00
2022-08-31T21:15:10.240Z,19.00
2022-08-31T21:17:37.346Z,18.90
2022-08-31T21:20:05.333Z,19.00
2022-08-31T21:22:34.981Z,18.90
2022-08-31T21:25:02.127Z,18.80
2022-08-31T21:27:29.540Z,18.80
2022-08-31T21:29:57.218Z,18.70
2022-08-31T21:32:24.423Z,18.70
2022-08-31T21:34:56.589Z,18.60
2022-08-31T21:37:23.722Z,18.60
2022-08-31T21:39:55.754Z,18.50
2022-08-31T21:42:25.123Z,18.50
2022-08-31T21:44:52.101Z,18.40
2022-08-31T21:47:19.144Z,18.40
2022-08-31T21:49:49.741Z,18.30
2022-08-31T21:52:17.352Z,18.30
2022-08-31T21:54:46.229Z,18.30
2022-08-31T21:57:15.169Z,18.20
2022-08-31T21:59:42.273Z,18.20
2022-08-31T22:02:11.763Z,18.10
2022-08-31T22:04:43.199Z,18.10
2022-08-31T22:07:14.065Z,18.10
2022-08-31T22:09:41.987Z,18.10
2022-08-31T22:12:12.749Z,18.00
2022-08-31T22:14:41.274Z,17.90
2022-08-31T22:17:09.241Z,17.90
2022-08-31T22:19:39.137Z,17.80
2022-08-31T22:22:12.050Z,17.80
2022-08-31T22:24:42.185Z,17.80
2022-08-31T22:27:11.709Z,17.80
2022-08-31T22:29:40.687Z,17.80
2022-08-31T22:32:12.938Z,17.70
2022-08-31T22:34:41.495Z,17.70
2022-08-31T22:37:09.776Z,17.60
2022-08-31T22:39:37.473Z,17.50
2022-08-31T22:42:04.991Z,17.50
2022-08-31T22:44:35.224Z,17.40
2022-08-31T22:47:03.462Z,17.30
2022-08-31T22:49:30.908Z,17.30
2022-08-31T22:51:57.938Z,17.20
2022-08-31T22:54:25.539Z,17.20
2022-08-31T22:56:53.486Z,17.10
2022-08-31T22:59:28.085Z,17.10
2022-08-31T23:02:03.409Z,17.00
2022-08-31T23:04:33.721Z,17.00
2022-08-31T23:07:01.824Z,17.00
2022-08-31T23:09:31.346Z,16.90
2022-08-31T23:12:00.903Z,16.90
2022-08-31T23:14:28.982Z,16.90
2022-08-31T23:16:58.958Z,16.90
2022-08-31T23:19:36.632Z,16.80
2022-08-31T23:22:09.054Z,16.80
2022-08-31T23:24:44.704Z,16.80
2022-08-31T23:27:15.637Z,16.70
2022-08-31T23:29:47.995Z,16.70
2022-08-31T23:32:21.194Z,16.70
2022-08-31T23:34:52.760Z,16.70
2022-08-31T23:37:24.064Z,16.60
2022-08-31T23:39:54.522Z,16.60
2022-08-31T23:42:24.506Z,16.60
2022-08-31T23:44:52.108Z,16.60
2022-08-31T23:47:28.269Z,16.60
2022-08-31T23:49:57.765Z,16.70
2022-08-31T23:52:28.713Z,16.70
2022-08-31T23:54:59.279Z,16.70
2022-08-31T23:57:32.659Z,16.70
